Flight Track Log - Related Links

Times and Time Zones

All times are in EDT time to prevent confusion due to time zone crossing. See the FFT917 flight status page for this flight to view local times or setup timezone preferences in your user account.

Time Position Orientation Groundspeed Altitude Reporting Facility
EDT Latitude Longitude Course Direction KTS MPH feet Rate Location/Type
Tue 08:16:30 AM 40.2310 -74.8700 222° Southwest 206 237 2,400  Level FlightAware ADS-B
Tue 08:16:54 AM 40.2130 -74.8920 223° Southwest 236 272 3,300 2,204 Climbing FlightAware ADS-B
Tue 08:17:19 AM 40.1930 -74.9170 224° Southwest 258 297 4,200 3,051 Climbing FlightAware ADS-B
Tue 08:17:53 AM 40.1610 -74.9560 223° Southwest 268 308 6,300 2,557 Climbing FlightAware ADS-B
Tue 08:18:20 AM 40.1410 -74.9890 232° Southwest 267 307 6,800 655 Climbing FlightAware ADS-B
Tue 08:18:48 AM 40.1260 -75.0290 244° Southwest 270 311 6,900 115 Climbing FlightAware ADS-B
Tue 08:19:12 AM 40.1130 -75.0660 245° Southwest 268 308 6,900 556 Level FlightAware ADS-B
Tue 08:19:42 AM 40.0970 -75.1090 244° Southwest 270 311 7,400 2,000 Climbing FlightAware ADS-B
Tue 08:20:00 AM 40.0870 -75.1370 245° Southwest 273 314 8,500 3,000 Climbing FlightAware ADS-B
Tue 08:20:24 AM 40.0740 -75.1710 243° Southwest 275 316 9,500 1,857 Climbing FlightAware ADS-B
Tue 08:20:42 AM 40.0640 -75.1980 244° Southwest 279 321 9,800 545 Climbing FlightAware ADS-B
Tue 08:21:08 AM 40.0490 -75.2380 244° Southwest 282 325 9,900  Climbing FlightAware ADS-B
Tue 08:21:40 AM 40.0300 -75.2880 244° Southwest 284 327 9,800 -83 Descending FlightAware ADS-B
Tue 08:22:20 AM 40.0080 -75.3480 244° Southwest 281 323 9,800 477 Level FlightAware ADS-B
Tue 08:23:08 AM 39.9790 -75.4240 244° Southwest 288 331 10,500 1,263 Climbing FlightAware ADS-B
Tue 08:23:55 AM 39.9520 -75.4980 245° Southwest 288 331 11,800 1,395 Climbing FlightAware ADS-B
Tue 08:24:34 AM 39.9300 -75.5550 243° Southwest 295 339 12,500 2,188 Climbing FlightAware ADS-B
Tue 08:25:20 AM 39.9010 -75.6330 244° Southwest 303 349 14,900 2,400 Climbing FlightAware ADS-B
Tue 08:26:39 AM 39.8500 -75.7680 244° Southwest 334 384 17,500 1,800 Climbing FlightAware ADS-B
Tue 08:27:20 AM 39.8140 -75.8370 236° Southwest 347 399 18,500 1,111 Climbing FlightAware ADS-B
Tue 08:28:00 AM 39.7720 -75.9050 231° Southwest 364 419 19,000 1,244 Climbing FlightAware ADS-B
Tue 08:28:42 AM 39.7250 -75.9790 230° Southwest 376 433 20,200 1,446 Climbing FlightAware ADS-B
Tue 08:29:23 AM 39.6810 -76.0480 230° Southwest 373 429 21,000 571 Climbing FlightAware ADS-B
Tue 08:30:06 AM 39.6330 -76.1250 231° Southwest 382 440 21,000 706 Level FlightAware ADS-B
Tue 08:30:48 AM 39.5890 -76.1940 230° Southwest 391 450 22,000 1,714 Climbing FlightAware ADS-B
Tue 08:31:30 AM 39.5350 -76.2760 230° Southwest 395 455 23,400 1,875 Climbing FlightAware ADS-B
Tue 08:32:08 AM 39.4920 -76.3420 230° Southwest 398 458 24,500 1,674 Climbing FlightAware ADS-B
Tue 08:32:56 AM 39.4340 -76.4330 230° Southwest 408 470 25,800 1,600 Climbing FlightAware ADS-B
Tue 08:33:38 AM 39.3860 -76.5090 231° Southwest 414 476 26,900 1,630 Climbing FlightAware ADS-B
Tue 08:34:17 AM 39.3370 -76.5860 231° Southwest 420 483 28,000 1,643 Climbing FlightAware ADS-B
Tue 08:35:02 AM 39.2790 -76.6760 230° Southwest 425 489 29,200 1,341 Climbing FlightAware ADS-B
Tue 08:35:42 AM 39.2290 -76.7550 231° Southwest 433 498 29,900 1,133 Climbing FlightAware ADS-B
Tue 08:36:32 AM 39.1640 -76.8560 230° Southwest 441 507 30,900 1,400 Climbing FlightAware ADS-B
Tue 08:37:12 AM 39.1100 -76.9390 230° Southwest 440 506 32,000 1,643 Climbing FlightAware ADS-B
Tue 08:37:56 AM 39.0540 -77.0230 229° Southwest 437 503 33,200 1,535 Climbing FlightAware ADS-B
Tue 08:38:38 AM 38.9890 -77.0990 222° Southwest 442 509 34,200 1,291 Climbing FlightAware ADS-B
Tue 08:39:15 AM 38.9330 -77.1610 221° Southwest 446 513 34,900 1,084 Climbing FlightAware ADS-B
Tue 08:40:01 AM 38.8590 -77.2420 220° Southwest 452 520 35,700 1,159 Climbing FlightAware ADS-B
Tue 08:40:43 AM 38.7920 -77.3150 220° Southwest 450 518 36,600 1,125 Climbing FlightAware ADS-B
Tue 08:41:21 AM 38.7350 -77.3780 221° Southwest 450 518 37,200 1,000 Climbing FlightAware ADS-B
Tue 08:42:01 AM 38.6700 -77.4480 220° Southwest 446 513 37,900 571 Climbing FlightAware ADS-B
Tue 08:42:45 AM 38.6000 -77.5240 220° Southwest 446 513 38,000 73 Climbing FlightAware ADS-B
Tue 08:43:23 AM 38.5400 -77.5890 220° Southwest 446 513 38,000  Level FlightAware ADS-B
Tue 08:44:07 AM 38.4710 -77.6630 220° Southwest 447 514 38,000  Level FlightAware ADS-B
Tue 08:44:45 AM 38.4120 -77.7270 220° Southwest 448 516 38,000  Level FlightAware ADS-B
Tue 08:45:31 AM 38.3380 -77.8070 220° Southwest 449 517 38,000  Level FlightAware ADS-B
Tue 08:46:11 AM 38.2740 -77.8750 220° Southwest 449 517 38,000  Level FlightAware ADS-B
Tue 08:46:55 AM 38.2050 -77.9500 221° Southwest 450 518 38,000  Level FlightAware ADS-B
Tue 08:47:37 AM 38.1360 -78.0230 220° Southwest 451 519 38,000  Level FlightAware ADS-B
Tue 08:48:19 AM 38.0700 -78.0930 220° Southwest 452 520 38,000  Level FlightAware ADS-B
Tue 08:49:03 AM 38.0000 -78.1660 219° Southwest 454 522 38,000  Level FlightAware ADS-B
Tue 08:49:41 AM 37.9350 -78.2280 217° Southwest 455 524 38,000  Level FlightAware ADS-B
Tue 08:50:19 AM 37.8710 -78.2890 217° Southwest 456 525 38,000  Level FlightAware ADS-B
Tue 08:50:59 AM 37.8030 -78.3530 217° Southwest 456 525 38,000  Level FlightAware ADS-B
Tue 08:51:41 AM 37.7330 -78.4200 217° Southwest 457 526 38,000  Level FlightAware ADS-B
Tue 08:52:19 AM 37.6690 -78.4810 217° Southwest 459 528 38,000  Level FlightAware ADS-B
Tue 08:53:07 AM 37.5860 -78.5590 217° Southwest 460 529 38,000  Level FlightAware ADS-B
Tue 08:53:47 AM 37.5170 -78.6240 217° Southwest 460 529 38,000  Level FlightAware ADS-B
Tue 08:54:31 AM 37.4460 -78.6910 217° Southwest 459 528 38,000  Level FlightAware ADS-B
Tue 08:55:13 AM 37.3750 -78.7580 217° Southwest 460 529 38,000  Level FlightAware ADS-B
Tue 08:55:47 AM 37.3150 -78.8140 217° Southwest 460 529 38,000  Level FlightAware ADS-B
Tue 08:56:29 AM 37.2450 -78.8790 216° Southwest 461 531 38,000  Level FlightAware ADS-B
Tue 08:57:06 AM 37.1910 -78.9290 216° Southwest 461 531 38,000  Level FlightAware ADS-B
Tue 08:58:02 AM 37.0920 -79.0210 217° Southwest 460 529 38,000  Level FlightAware ADS-B
Tue 08:58:41 AM 37.0190 -79.0900 217° Southwest 457 526 38,000  Level FlightAware ADS-B
Tue 08:59:19 AM 36.9540 -79.1490 216° Southwest 456 525 38,000 -71 Level FlightAware ADS-B
Tue 09:00:05 AM 36.8760 -79.2210 216° Southwest 454 522 37,900 -68 Descending FlightAware ADS-B
Tue 09:00:47 AM 36.8040 -79.2880 217° Southwest 454 522 37,900  Level FlightAware ADS-B
Tue 09:01:29 AM 36.7320 -79.3530 216° Southwest 456 525 37,900  Level FlightAware ADS-B
Tue 09:02:13 AM 36.6600 -79.4200 217° Southwest 456 525 37,900  Level FlightAware ADS-B
Tue 09:02:39 AM 36.6220 -79.4540 216° Southwest 456 525 37,900  Level FlightAware ADS-B
Tue 09:03:26 AM 36.5540 -79.5160 216° Southwest 456 525 37,900  Level FlightAware ADS-B
Tue 09:04:39 AM 36.4480 -79.6110 216° Southwest 456 525 37,900  Level FlightAware ADS-B
Tue 09:05:27 AM 36.3780 -79.6740 216° Southwest 456 525 37,900  Level FlightAware ADS-B
Tue 09:06:03 AM 36.3260 -79.7210 216° Southwest 456 525 37,900  Level FlightAware ADS-B
Tue 09:06:51 AM 36.2560 -79.7840 216° Southwest 456 525 37,900  Level FlightAware ADS-B
Tue 09:07:26 AM 36.2060 -79.8300 217° Southwest 456 525 37,900  Level FlightAware ADS-B
Tue 09:10:40 AM 35.9240 -80.0830 216° Southwest 456 525 37,900 29 Level FlightAware ADS-B
Tue 09:10:51 AM 35.7400 -80.1300 192° South 454 522 38,000 24 Climbing FlightAware ADS-B
Tue 09:14:46 AM 35.2890 -80.3560 202° Southwest 453 521 38,000  Level FlightAware ADS-B
Tue 09:19:27 AM 34.7410 -80.6260 202° Southwest 454 522 38,000  Level FlightAware ADS-B
Tue 09:19:57 AM 34.6770 -80.6570 202° Southwest 453 521 38,000  Level FlightAware ADS-B
Tue 09:20:41 AM 34.5930 -80.6990 202° Southwest 454 522 38,000  Level FlightAware ADS-B
Tue 09:21:21 AM 34.5140 -80.7370 202° Southwest 453 521 38,000  Level FlightAware ADS-B
Tue 09:22:01 AM 34.4360 -80.7750 202° Southwest 453 521 38,000  Level FlightAware ADS-B
Tue 09:22:45 AM 34.3520 -80.8150 201° Southwest 452 520 38,000  Level FlightAware ADS-B
Tue 09:23:27 AM 34.2690 -80.8550 202° Southwest 452 520 38,000  Level FlightAware ADS-B
Tue 09:24:13 AM 34.1790 -80.8990 202° Southwest 452 520 38,000  Level FlightAware ADS-B
Tue 09:24:45 AM 34.1180 -80.9280 201° Southwest 452 520 38,000  Level FlightAware ADS-B
Tue 09:25:29 AM 34.0310 -80.9710 202° Southwest 453 521 38,000  Level FlightAware ADS-B
Tue 09:26:11 AM 33.9510 -81.0090 202° Southwest 453 521 38,000  Level FlightAware ADS-B
Tue 09:26:41 AM 33.8940 -81.0330 199° South 454 522 38,000 -92 Level FlightAware ADS-B
Tue 09:27:16 AM 33.8397 -81.0497 199° South 453 521 37,900 -63 Descending Jacksonville Center
Tue 09:28:16 AM 33.7147 -81.0700 188° South 453 521 37,900  Level Jacksonville Center
Tue 09:29:16 AM 33.5875 -81.0800 184° South 458 527 37,900  Level Jacksonville Center
Tue 09:30:16 AM 33.4647 -81.0925 185° South 458 527 37,900  Level Jacksonville Center
Tue 09:31:16 AM 33.3353 -81.1025 184° South 458 527 37,900  Level Jacksonville Center
Tue 09:32:16 AM 33.2144 -81.1125 184° South 458 527 37,900  Level Jacksonville Center
Tue 09:33:16 AM 33.0872 -81.1247 185° South 458 527 37,900 14 Level Jacksonville Center
Tue 09:39:15 AM 32.3380 -81.1830 185° South 460 529 38,000 15 Climbing FlightAware ADS-B
Tue 09:39:56 AM 32.2420 -81.1910 184° South 459 528 38,000  Level FlightAware ADS-B
Tue 09:40:42 AM 32.1430 -81.1980 183° South 455 524 38,000  Level FlightAware ADS-B
Tue 09:41:19 AM 32.0620 -81.1960 179° South 453 521 38,000 -78 Level FlightAware ADS-B
Tue 09:41:59 AM 31.9780 -81.1940 179° South 452 520 37,900 -78 Descending FlightAware ADS-B
Tue 09:42:36 AM 31.9040 -81.1910 178° South 451 519 37,900  Level FlightAware ADS-B
Tue 09:43:16 AM 31.8330 -81.1890 179° South 452 520 37,900 67 Level FlightAware ADS-B
Tue 09:44:05 AM 31.7150 -81.1950 182° South 455 524 38,000 67 Climbing FlightAware ADS-B
Tue 09:44:46 AM 31.6310 -81.2090 188° South 455 524 38,000  Level FlightAware ADS-B
Tue 09:45:29 AM 31.5460 -81.2230 188° South 454 522 38,000  Level FlightAware ADS-B
Tue 09:46:00 AM 31.4790 -81.2340 188° South 454 522 38,000  Level FlightAware ADS-B
Tue 09:46:41 AM 31.3950 -81.2490 189° South 454 522 38,000 -80 Level FlightAware ADS-B
Tue 09:47:15 AM 31.3220 -81.2610 188° South 454 522 37,900 -578 Descending FlightAware ADS-B
Tue 09:48:04 AM 31.2210 -81.2780 188° South 458 527 37,200 -966 Descending FlightAware ADS-B
Tue 09:48:42 AM 31.1410 -81.2930 189° South 456 525 36,500 -1,239 Descending FlightAware ADS-B
Tue 09:49:36 AM 31.0250 -81.3080 186° South 460 529 35,300 -970 Descending FlightAware ADS-B
Tue 09:50:21 AM 30.9410 -81.2950 172° South 457 526 34,900 -2,169 Descending FlightAware ADS-B
Tue 09:50:59 AM 31.0100 -81.3100 349° North 461 531 32,300 -1,793 Descending FlightAware ADS-B
Tue 09:51:48 AM 30.9220 -81.3160 183° South 461 531 32,300  Level FlightAware ADS-B
Tue 09:52:24 AM 30.8570 -81.3200 183° South 461 531 32,300  Level FlightAware ADS-B
Tue 09:53:12 AM 30.7700 -81.3250 183° South 461 531 32,300 -508 Level FlightAware ADS-B
Tue 09:53:22 AM 30.5610 -81.1510 144° Southeast 32,000 -857 Descending FlightAware ADS-B
Tue 09:53:30 AM 30.5490 -81.1500 176° South 32,000 -700 Level FlightAware ADS-B
Tue 09:54:22 AM 30.4990 -81.1480 178° South 449 517 31,300 -909 Descending FlightAware ADS-B
Tue 09:55:09 AM 30.3390 -81.1430 178° South 448 516 30,500 -1,050 Descending FlightAware ADS-B
Tue 09:55:42 AM 30.2710 -81.1410 179° South 442 509 29,900 -1,040 Descending FlightAware ADS-B
Tue 09:56:24 AM 30.1820 -81.1390 179° South 433 498 29,200 -1,000 Descending FlightAware ADS-B
Tue 09:57:06 AM 30.0990 -81.1360 178° South 433 498 28,500 -776 Descending FlightAware ADS-B
Tue 09:58:20 AM 29.9630 -81.1320 179° South 433 498 27,700 -1,276 Descending FlightAware ADS-B
Tue 09:59:13 AM 29.8580 -81.1290 179° South 424 488 25,800 -2,105 Descending FlightAware ADS-B
Tue 10:00:14 AM 29.8610 -81.1290 360° North 416 479 23,700 -1,846 Descending FlightAware ADS-B
Tue 10:00:44 AM 29.8620 -81.1290 360° North 401 461 23,000 -545 Descending FlightAware ADS-B
Tue 10:01:31 AM 29.7880 -81.1260 178° South 401 461 23,000  Level FlightAware ADS-B
Tue 10:02:06 AM 29.7330 -81.1230 177° South 401 461 23,000 -1,811 Level FlightAware ADS-B
Tue 10:03:17 AM 29.8400 -81.1290 357° North 401 461 19,800 -1,794 Descending FlightAware ADS-B
Tue 10:03:53 AM 29.7840 -81.1280 179° South 401 461 19,800  Level FlightAware ADS-B
Tue 10:04:41 AM 29.7080 -81.1260 179° South 401 461 19,800  Level FlightAware ADS-B
Tue 10:05:18 AM 29.6500 -81.1250 179° South 401 461 19,800  Level FlightAware ADS-B
Tue 10:05:56 AM 29.5900 -81.1240 179° South 401 461 19,800 -2,874 Level FlightAware ADS-B
Tue 10:07:33 AM 28.9920 -81.0860 177° South 11,800 -3,592 Descending FlightAware ADS-B
Tue 10:08:28 AM 28.9150 -81.0730 172° South 296 341 10,700 -1,380 Descending FlightAware ADS-B
Tue 10:09:13 AM 28.8530 -81.0630 172° South 293 337 9,500 -986 Descending FlightAware ADS-B
Tue 10:09:41 AM 28.8210 -81.0570 171° South 293 337 9,500 -805 Level FlightAware ADS-B
Tue 10:10:35 AM 28.7600 -81.0840 201° Southwest 272 313 8,400 -1,164 Descending FlightAware ADS-B
Tue 10:10:48 AM 28.7540 -81.1060 253° West 256 295 8,200 -1,204 Descending FlightAware ADS-B
Tue 10:15:44 AM 28.5710 -81.2840 221° Southwest 166 191 2,200 -1,178 Descending FlightAware ADS-B
Tue 10:16:19 AM 28.5430 -81.2840 180° South 159 183 1,700 -800 Descending FlightAware ADS-B
Tue 10:16:44 AM 28.5260 -81.2830 177° South 144 166 1,400 -720 Descending FlightAware ADS-B
Tue 10:17:09 AM 28.5060 -81.2830 180° South 144 166 1,100 -652 Descending FlightAware ADS-B
Tue 10:17:30 AM 28.4930 -81.2830 180° South 149 171 900 -732 Descending FlightAware ADS-B
Tue 10:17:50 AM 28.4790 -81.2830 180° South 134 154 600 -900 Descending FlightAware ADS-B
Tue 10:18:37 AM 28.4520 -81.2830 180° South 129 148 -766 Descending FlightAware ADS-B
Tue 10:19:21 AM 28.4280 -81.2820 178° South 54 62  Level FlightAware ADS-B
Tue 10:19:46 AM 28.4250 -81.2840 210° Southwest 23 26  Level FlightAware ADS-B
Tue 10:20:18 AM 28.4240 -81.2870 249° West 25 29  Level FlightAware ADS-B
Tue 10:20:42 AM 28.4230 -81.2930 259° West 33 38  Level FlightAware ADS-B
Tue 10:21:08 AM 28.4230 -81.2960 270° West 33 38  Level FlightAware ADS-B
Tue 10:26:00 AM 28.4167 -81.3000 336° Northwest  Level FlightAware Approximate
Tue 10:27:00 AM 28.4294 -81.3090 336° Northwest  Level Estimated
Tue 10:28:00 AM 28.4294 -81.3090 336° Northwest  Level Estimated
Tue 10:29:00 AM 28.4294 -81.3090 336° Northwest  Level Estimated

Login

Don't have an account? Register now (free) for customized features, flight alerts, and more!